createdAt,value
2019-03-23T00:01:12.942Z,100820.14
2019-03-23T00:03:46.992Z,100818.62
2019-03-23T00:06:30.263Z,100815.73
2019-03-23T00:08:56.382Z,100814.09
2019-03-23T00:11:30.058Z,100812.87
2019-03-23T00:14:03.801Z,100813.65
2019-03-23T00:16:37.842Z,100811.43
2019-03-23T00:19:11.848Z,100811.69
2019-03-23T00:21:47.128Z,100811.91
2019-03-23T00:24:22.382Z,100807.38
2019-03-23T00:26:55.966Z,100811.69
2019-03-23T00:29:30.196Z,100807.42
2019-03-23T00:32:05.275Z,100807.21
2019-03-23T00:34:38.752Z,100805.05
2019-03-23T00:37:12.785Z,100803.27
2019-03-23T00:39:46.360Z,100800.68
2019-03-23T00:42:20.892Z,100806.13
2019-03-23T00:44:54.928Z,100798.41
2019-03-23T00:47:28.520Z,100800.40
2019-03-23T00:50:03.019Z,100798.95
2019-03-23T00:52:38.035Z,100797.67
2019-03-23T00:55:11.698Z,100803.41
2019-03-23T00:57:45.083Z,100809.30
2019-03-23T01:00:20.234Z,100802.05
2019-03-23T01:02:55.266Z,100798.22
2019-03-23T01:05:29.691Z,100800.81
2019-03-23T01:08:03.556Z,100799.79
2019-03-23T01:10:39.637Z,100798.54
2019-03-23T01:13:13.313Z,100802.72
2019-03-23T01:15:49.591Z,100806.25
2019-03-23T01:18:25.174Z,100803.89
2019-03-23T01:21:01.343Z,100808.51
2019-03-23T01:23:35.111Z,100809.06
2019-03-23T01:26:08.822Z,100818.47
2019-03-23T01:28:42.936Z,100834.13
2019-03-23T01:31:16.534Z,100822.66
2019-03-23T01:33:50.070Z,100825.53
2019-03-23T01:36:25.242Z,100824.84
2019-03-23T01:38:58.403Z,100812.50
2019-03-23T01:41:32.879Z,100814.53
2019-03-23T01:44:06.627Z,100808.53
2019-03-23T01:46:40.813Z,100808.98
2019-03-23T01:49:15.794Z,100807.03
2019-03-23T01:51:49.350Z,100807.03
2019-03-23T01:54:23.687Z,100806.13
2019-03-23T01:56:57.598Z,100811.45
2019-03-23T01:59:31.092Z,100806.47
2019-03-23T02:02:05.129Z,100814.75
2019-03-23T02:04:38.722Z,100814.08
2019-03-23T02:07:14.012Z,100813.39
2019-03-23T02:09:47.483Z,100814.08
2019-03-23T02:12:21.681Z,100809.78
2019-03-23T02:14:54.918Z,100811.58
2019-03-23T02:17:28.756Z,100811.79
2019-03-23T02:20:02.387Z,100810.27
2019-03-23T02:22:36.558Z,100813.32
2019-03-23T02:25:12.036Z,100820.83
2019-03-23T02:27:45.603Z,100817.63
2019-03-23T02:30:19.331Z,100818.98
2019-03-23T02:32:53.288Z,100823.62
2019-03-23T02:35:27.240Z,100835.23
2019-03-23T02:38:01.676Z,100841.09
2019-03-23T02:40:36.484Z,100839.92
2019-03-23T02:43:10.708Z,100848.70
2019-03-23T02:45:44.370Z,100851.59
2019-03-23T02:48:18.276Z,100857.41
2019-03-23T02:50:52.332Z,100859.81
2019-03-23T02:53:25.534Z,100850.05
2019-03-23T02:55:59.833Z,100853.02
2019-03-23T02:58:33.428Z,100850.87
2019-03-23T03:01:07.251Z,100855.75
2019-03-23T03:03:41.272Z,100859.55
2019-03-23T03:06:15.186Z,100861.31
2019-03-23T03:08:48.435Z,100868.75
2019-03-23T03:11:21.578Z,100877.22
2019-03-23T03:13:55.501Z,100873.02
2019-03-23T03:16:29.432Z,100875.73
2019-03-23T03:19:03.262Z,100881.20
2019-03-23T03:21:36.567Z,100886.81
2019-03-23T03:24:10.734Z,100891.94
2019-03-23T03:26:44.374Z,100895.63
2019-03-23T03:29:18.213Z,100897.25
2019-03-23T03:31:52.537Z,100893.25
2019-03-23T03:34:26.023Z,100897.26
2019-03-23T03:36:59.927Z,100897.87
2019-03-23T03:39:33.866Z,100904.25
2019-03-23T03:42:07.821Z,100900.18
2019-03-23T03:44:41.548Z,100906.95
2019-03-23T03:47:15.730Z,100906.95
2019-03-23T03:49:49.672Z,100910.76
2019-03-23T03:52:23.720Z,100902.48
2019-03-23T03:54:56.983Z,100906.31
2019-03-23T03:57:31.005Z,100906.06
2019-03-23T04:00:06.195Z,100907.70
2019-03-23T04:02:40.748Z,100913.09
2019-03-23T04:05:15.074Z,100911.20
2019-03-23T04:07:49.072Z,100911.36
2019-03-23T04:10:24.048Z,100910.34
2019-03-23T04:12:58.469Z,100912.14
2019-03-23T04:15:32.486Z,100908.56
2019-03-23T04:18:07.615Z,100921.80
2019-03-23T04:20:41.331Z,100923.27
2019-03-23T04:23:15.247Z,100922.95
2019-03-23T04:25:48.390Z,100929.76
2019-03-23T04:28:22.269Z,100921.92
2019-03-23T04:30:56.753Z,100925.05
2019-03-23T04:33:29.949Z,100935.06
2019-03-23T04:36:03.559Z,100942.80
2019-03-23T04:38:37.813Z,100949.48
2019-03-23T04:41:11.924Z,100958.94
2019-03-23T04:43:46.348Z,100964.91
2019-03-23T04:46:20.169Z,100973.52
2019-03-23T04:48:54.015Z,100973.87
2019-03-23T04:51:27.654Z,100979.27
2019-03-23T04:54:01.090Z,100976.02
2019-03-23T04:56:35.112Z,100976.83
2019-03-23T04:59:08.595Z,100976.02
2019-03-23T05:01:42.714Z,100979.99
2019-03-23T05:04:16.306Z,100976.14
2019-03-23T05:06:50.345Z,100982.43
2019-03-23T05:09:24.580Z,100973.14
2019-03-23T05:11:58.560Z,100976.39
2019-03-23T05:14:32.223Z,100977.62
2019-03-23T05:17:05.788Z,100977.89
2019-03-23T05:19:39.871Z,100971.78
2019-03-23T05:22:12.969Z,100986.61
2019-03-23T05:24:46.877Z,100981.96
2019-03-23T05:27:20.147Z,100985.11
2019-03-23T05:29:53.655Z,100989.25
2019-03-23T05:32:27.179Z,100989.83
2019-03-23T05:35:01.011Z,100993.30
2019-03-23T05:37:34.689Z,100991.84
2019-03-23T05:40:08.886Z,100994.00
2019-03-23T05:42:42.514Z,100994.31
2019-03-23T05:45:16.857Z,101005.91
2019-03-23T05:47:51.203Z,101011.36
2019-03-23T05:50:25.422Z,101018.50
2019-03-23T05:52:58.654Z,101027.47
2019-03-23T05:55:32.898Z,101030.61
2019-03-23T05:58:06.582Z,101027.52
2019-03-23T06:00:40.150Z,101024.45
2019-03-23T06:03:13.268Z,101039.09
2019-03-23T06:05:47.260Z,101048.55
2019-03-23T06:08:20.443Z,101059.83
2019-03-23T06:10:54.450Z,101054.48
2019-03-23T06:13:27.675Z,101058.72
2019-03-23T06:16:01.676Z,101062.17
2019-03-23T06:18:35.390Z,101063.70
2019-03-23T06:21:08.970Z,101062.41
2019-03-23T06:23:42.616Z,101074.44
2019-03-23T06:26:16.232Z,101075.94
2019-03-23T06:28:50.001Z,101073.86
2019-03-23T06:31:24.045Z,101073.24
2019-03-23T06:33:58.039Z,101072.49
2019-03-23T06:36:31.628Z,101086.73
2019-03-23T06:39:06.863Z,101086.19
2019-03-23T06:41:40.762Z,101091.23
2019-03-23T06:44:14.457Z,101102.09
2019-03-23T06:46:47.547Z,101103.07
2019-03-23T06:49:21.072Z,101107.84
2019-03-23T06:51:54.360Z,101107.11
2019-03-23T06:54:28.481Z,101107.70
2019-03-23T06:57:02.011Z,101104.16
2019-03-23T06:59:35.696Z,101107.42
2019-03-23T07:02:09.308Z,101118.16
2019-03-23T07:04:43.321Z,101111.17
2019-03-23T07:07:18.216Z,101114.97
2019-03-23T07:09:51.918Z,101116.58
2019-03-23T07:12:25.567Z,101117.31
2019-03-23T07:14:59.855Z,101123.52
2019-03-23T07:17:33.347Z,101122.22
2019-03-23T07:20:07.986Z,101124.50
2019-03-23T07:22:41.749Z,101129.23
2019-03-23T07:25:15.396Z,101128.23
2019-03-23T07:27:49.420Z,101131.08
2019-03-23T07:30:23.289Z,101126.98
2019-03-23T07:32:56.704Z,101127.86
2019-03-23T07:35:32.162Z,101137.20
2019-03-23T07:38:05.896Z,101135.86
2019-03-23T07:40:39.483Z,101135.73
2019-03-23T07:43:13.229Z,101131.62
2019-03-23T07:45:47.180Z,101129.80
2019-03-23T07:48:21.367Z,101133.36
2019-03-23T07:50:57.536Z,101127.84
2019-03-23T07:53:31.161Z,101134.87
2019-03-23T07:56:05.274Z,101138.83
2019-03-23T07:58:38.952Z,101141.08
2019-03-23T08:01:12.956Z,101137.65
2019-03-23T08:03:46.678Z,101142.70
2019-03-23T08:06:21.017Z,101149.64
2019-03-23T08:08:55.860Z,101146.63
2019-03-23T08:11:29.791Z,101148.45
2019-03-23T08:14:03.785Z,101154.88
2019-03-23T08:16:38.231Z,101157.41
2019-03-23T08:19:12.417Z,101156.66
2019-03-23T08:21:46.114Z,101158.45
2019-03-23T08:24:19.306Z,101153.30
2019-03-23T08:26:52.484Z,101154.91
2019-03-23T08:29:26.743Z,101151.91
2019-03-23T08:32:00.504Z,101154.77
2019-03-23T08:34:34.207Z,101157.09
2019-03-23T08:37:08.219Z,101153.30
2019-03-23T08:39:48.508Z,101164.28
2019-03-23T08:42:19.341Z,101153.60
2019-03-23T08:44:53.545Z,101158.42
2019-03-23T08:47:27.508Z,101160.84
2019-03-23T08:50:01.149Z,101154.70
2019-03-23T08:52:35.247Z,101159.28
2019-03-23T08:55:08.653Z,101155.11
2019-03-23T08:57:42.367Z,101153.55
2019-03-23T09:00:18.347Z,101151.70
2019-03-23T09:02:52.329Z,101157.33
2019-03-23T09:05:26.031Z,101151.73
2019-03-23T09:08:00.133Z,101165.01
2019-03-23T09:10:33.854Z,101161.46
2019-03-23T09:13:07.857Z,101163.94
2019-03-23T09:15:42.024Z,101171.30
2019-03-23T09:18:15.433Z,101160.45
2019-03-23T09:20:49.156Z,101158.97
2019-03-23T09:23:23.149Z,101164.73
2019-03-23T09:25:57.241Z,101166.91
2019-03-23T09:28:31.693Z,101166.05
2019-03-23T09:31:05.922Z,101170.59
2019-03-23T09:33:40.326Z,101171.80
2019-03-23T09:36:14.256Z,101171.02
2019-03-23T09:38:48.224Z,101176.40
2019-03-23T09:41:21.411Z,101177.15
2019-03-23T09:43:54.666Z,101172.95
2019-03-23T09:46:28.358Z,101175.80
2019-03-23T09:49:02.482Z,101178.84
2019-03-23T09:51:36.660Z,101182.11
2019-03-23T09:54:09.779Z,101187.92
2019-03-23T09:56:43.567Z,101190.58
2019-03-23T09:59:18.038Z,101190.95
2019-03-23T10:01:52.259Z,101194.01
2019-03-23T10:04:25.950Z,101202.52
2019-03-23T10:07:00.004Z,101198.94
2019-03-23T10:09:34.485Z,101201.17
2019-03-23T10:12:08.944Z,101205.48
2019-03-23T10:14:43.286Z,101203.97
2019-03-23T10:17:17.695Z,101207.23
2019-03-23T10:19:58.338Z,101193.77
2019-03-23T10:22:33.179Z,101197.33
2019-03-23T10:25:08.020Z,101202.75
2019-03-23T10:27:41.401Z,101205.96
2019-03-23T10:30:16.009Z,101203.89
2019-03-23T10:32:49.952Z,101197.78
2019-03-23T10:35:24.033Z,101193.28
2019-03-23T10:37:58.119Z,101186.80
2019-03-23T10:40:32.916Z,101185.53
2019-03-23T10:43:07.198Z,101189.83
2019-03-23T10:45:44.277Z,101189.34
2019-03-23T10:48:16.626Z,101183.98
2019-03-23T10:50:50.459Z,101190.70
2019-03-23T10:53:24.541Z,101188.67
2019-03-23T10:55:57.619Z,101185.48
2019-03-23T10:58:31.327Z,101190.02
2019-03-23T11:01:05.042Z,101192.51
2019-03-23T11:03:38.748Z,101195.55
2019-03-23T11:06:12.663Z,101194.50
2019-03-23T11:08:46.684Z,101197.34
2019-03-23T11:11:21.038Z,101194.05
2019-03-23T11:13:55.027Z,101192.94
2019-03-23T11:16:28.274Z,101191.80
2019-03-23T11:19:02.015Z,101188.45
2019-03-23T11:21:35.636Z,101198.95
2019-03-23T11:24:09.723Z,101195.72
2019-03-23T11:26:43.791Z,101200.41
2019-03-23T11:29:17.029Z,101200.09
2019-03-23T11:31:50.836Z,101199.81
2019-03-23T11:34:25.058Z,101198.20
2019-03-23T11:36:58.915Z,101201.46
2019-03-23T11:39:32.855Z,101206.16
2019-03-23T11:42:06.800Z,101200.75
2019-03-23T11:44:40.130Z,101210.78
2019-03-23T11:47:14.378Z,101203.75
2019-03-23T11:49:48.394Z,101210.21
2019-03-23T11:52:22.419Z,101214.84
2019-03-23T11:54:56.027Z,101213.70
2019-03-23T11:57:30.153Z,101214.97
2019-03-23T12:00:04.148Z,101218.02
2019-03-23T12:02:38.254Z,101211.13
2019-03-23T12:05:11.487Z,101206.52
2019-03-23T12:07:45.681Z,101211.11
2019-03-23T12:10:19.761Z,101198.23
2019-03-23T12:12:54.105Z,101196.52
2019-03-23T12:15:30.244Z,101200.96
2019-03-23T12:18:04.484Z,101195.16
2019-03-23T12:20:38.288Z,101199.80
2019-03-23T12:23:11.573Z,101202.90
2019-03-23T12:25:45.543Z,101195.34
2019-03-23T12:28:21.027Z,101195.17
2019-03-23T12:30:55.594Z,101195.14
2019-03-23T12:33:31.310Z,101197.16
2019-03-23T12:36:05.281Z,101203.91
2019-03-23T12:38:38.679Z,101204.11
2019-03-23T12:41:22.724Z,101203.52
2019-03-23T12:43:51.293Z,101202.61
2019-03-23T12:46:26.567Z,101203.19
2019-03-23T12:49:00.545Z,101205.55
2019-03-23T12:51:36.858Z,101205.85
2019-03-23T12:54:10.728Z,101200.14
2019-03-23T12:56:44.330Z,101201.94
2019-03-23T12:59:18.090Z,101204.41
2019-03-23T13:01:52.093Z,101200.61
2019-03-23T13:04:26.184Z,101196.62
2019-03-23T13:07:00.208Z,101200.61
2019-03-23T13:09:35.476Z,101194.68
2019-03-23T13:12:09.162Z,101192.11
2019-03-23T13:14:43.552Z,101191.02
2019-03-23T13:17:19.942Z,101190.72
2019-03-23T13:19:54.352Z,101190.46
2019-03-23T13:22:28.074Z,101193.64
2019-03-23T13:25:01.401Z,101192.02
2019-03-23T13:27:35.716Z,101185.55
2019-03-23T13:30:10.440Z,101189.19
2019-03-23T13:32:44.616Z,101196.52
2019-03-23T13:35:17.744Z,101191.19
2019-03-23T13:37:51.553Z,101191.34
2019-03-23T13:40:25.509Z,101192.73
2019-03-23T13:42:59.945Z,101197.80
2019-03-23T13:45:42.399Z,101189.26
2019-03-23T13:48:09.189Z,101189.09
2019-03-23T13:50:42.842Z,101193.41
2019-03-23T13:53:17.131Z,101192.47
2019-03-23T13:55:51.102Z,101194.48
2019-03-23T13:58:24.658Z,101193.11
2019-03-23T14:00:58.309Z,101187.13
2019-03-23T14:03:31.534Z,101191.09
2019-03-23T14:06:05.134Z,101189.58
2019-03-23T14:08:39.375Z,101191.01
2019-03-23T14:11:13.386Z,101192.62
2019-03-23T14:13:50.257Z,101198.34
2019-03-23T14:16:24.148Z,101195.52
2019-03-23T14:18:58.586Z,101196.20
2019-03-23T14:21:32.273Z,101197.11
2019-03-23T14:24:06.311Z,101196.23
2019-03-23T14:26:40.752Z,101197.46
2019-03-23T14:29:14.048Z,101190.22
2019-03-23T14:31:48.067Z,101188.02
2019-03-23T14:34:21.304Z,101188.20
2019-03-23T14:36:57.268Z,101192.66
2019-03-23T14:39:31.506Z,101195.22
2019-03-23T14:42:05.395Z,101194.70
2019-03-23T14:44:39.154Z,101193.00
2019-03-23T14:47:13.349Z,101189.25
2019-03-23T14:49:47.462Z,101195.02
2019-03-23T14:52:21.317Z,101187.97
2019-03-23T14:54:55.957Z,101192.39
2019-03-23T14:57:29.931Z,101193.73
2019-03-23T15:00:04.617Z,101195.92
2019-03-23T15:02:38.393Z,101200.24
2019-03-23T15:05:12.073Z,101197.80
2019-03-23T15:07:46.566Z,101195.52
2019-03-23T15:10:19.891Z,101204.38
2019-03-23T15:12:53.528Z,101202.67
2019-03-23T15:15:27.092Z,101203.68
2019-03-23T15:18:01.175Z,101205.06
2019-03-23T15:20:35.289Z,101208.23
2019-03-23T15:23:08.881Z,101210.63
2019-03-23T15:25:42.951Z,101214.27
2019-03-23T15:28:17.244Z,101221.41
2019-03-23T15:30:51.360Z,101213.92
2019-03-23T15:33:25.069Z,101211.66
2019-03-23T15:35:59.578Z,101213.92
2019-03-23T15:38:33.457Z,101215.17
2019-03-23T15:41:07.669Z,101211.40
2019-03-23T15:43:41.685Z,101207.55
2019-03-23T15:46:15.355Z,101213.80
2019-03-23T15:48:49.485Z,101215.97
2019-03-23T15:51:23.495Z,101210.73
2019-03-23T15:53:57.574Z,101207.87
2019-03-23T15:56:31.231Z,101211.18
2019-03-23T15:59:05.366Z,101203.45
2019-03-23T16:01:39.388Z,101209.62
2019-03-23T16:04:12.962Z,101214.62
2019-03-23T16:06:47.109Z,101210.39
2019-03-23T16:09:21.174Z,101215.06
2019-03-23T16:11:55.259Z,101213.92
2019-03-23T16:14:29.685Z,101215.73
2019-03-23T16:17:05.156Z,101218.23
2019-03-23T16:19:40.243Z,101213.48
2019-03-23T16:22:13.359Z,101223.19
2019-03-23T16:24:47.300Z,101223.87
2019-03-23T16:27:21.849Z,101224.78
2019-03-23T16:29:55.905Z,101221.79
2019-03-23T16:32:29.634Z,101224.03
2019-03-23T16:35:03.664Z,101224.59
2019-03-23T16:37:37.357Z,101220.50
2019-03-23T16:40:11.717Z,101222.39
2019-03-23T16:42:45.843Z,101223.48
2019-03-23T16:45:19.302Z,101223.94
2019-03-23T16:47:56.360Z,101223.87
2019-03-23T16:50:32.008Z,101231.10
2019-03-23T16:53:07.607Z,101229.78
2019-03-23T16:55:41.554Z,101227.89
2019-03-23T16:58:16.282Z,101234.42
2019-03-23T17:00:50.691Z,101238.77
2019-03-23T17:03:24.509Z,101228.86
2019-03-23T17:05:58.334Z,101231.45
2019-03-23T17:08:32.383Z,101233.91
2019-03-23T17:11:05.624Z,101223.54
2019-03-23T17:13:40.196Z,101221.98
2019-03-23T17:16:13.876Z,101227.17
2019-03-23T17:18:47.533Z,101224.13
2019-03-23T17:21:23.016Z,101223.25
2019-03-23T17:23:57.055Z,101222.77
2019-03-23T17:26:31.427Z,101230.85
2019-03-23T17:29:05.893Z,101230.60
2019-03-23T17:31:40.021Z,101232.57
2019-03-23T17:34:14.440Z,101227.05
2019-03-23T17:36:48.103Z,101231.98
2019-03-23T17:39:22.656Z,101240.14
2019-03-23T17:41:56.849Z,101233.18
2019-03-23T17:44:31.970Z,101235.59
2019-03-23T17:47:05.309Z,101237.79
2019-03-23T17:49:39.405Z,101240.03
2019-03-23T17:52:13.204Z,101233.84
2019-03-23T17:54:46.819Z,101236.16
2019-03-23T17:57:20.104Z,101243.44
2019-03-23T17:59:54.390Z,101237.92
2019-03-23T18:02:28.180Z,101239.42
2019-03-23T18:05:02.389Z,101243.22
2019-03-23T18:07:37.115Z,101251.65
2019-03-23T18:10:10.983Z,101250.43
2019-03-23T18:12:45.180Z,101249.19
2019-03-23T18:15:19.662Z,101248.66
2019-03-23T18:17:53.240Z,101252.27
2019-03-23T18:20:27.729Z,101256.89
2019-03-23T18:23:01.442Z,101256.76
2019-03-23T18:25:35.470Z,101263.95
2019-03-23T18:28:09.563Z,101266.05
2019-03-23T18:30:43.850Z,101262.86
2019-03-23T18:33:17.786Z,101265.93
2019-03-23T18:35:52.040Z,101278.16
2019-03-23T18:38:26.597Z,101282.59
2019-03-23T18:40:59.848Z,101291.19
2019-03-23T18:43:34.014Z,101284.19
2019-03-23T18:46:07.801Z,101296.25
2019-03-23T18:48:41.652Z,101301.96
2019-03-23T18:51:15.806Z,101309.45
2019-03-23T18:53:50.132Z,101301.13
2019-03-23T18:56:22.973Z,101312.36
2019-03-23T18:58:56.780Z,101306.70
2019-03-23T19:01:30.691Z,101307.26
2019-03-23T19:04:03.950Z,101301.44
2019-03-23T19:06:38.300Z,101305.41
2019-03-23T19:09:12.035Z,101308.27
2019-03-23T19:11:45.611Z,101306.66
2019-03-23T19:14:20.132Z,101306.88
2019-03-23T19:16:54.132Z,101312.41
2019-03-23T19:19:27.768Z,101318.42
2019-03-23T19:22:01.747Z,101306.33
2019-03-23T19:24:35.337Z,101317.33
2019-03-23T19:27:09.081Z,101318.80
2019-03-23T19:29:43.265Z,101320.91
2019-03-23T19:32:17.518Z,101315.55
2019-03-23T19:34:50.756Z,101321.13
2019-03-23T19:37:24.515Z,101325.69
2019-03-23T19:39:58.613Z,101318.91
2019-03-23T19:42:33.128Z,101319.55
2019-03-23T19:45:07.291Z,101323.18
2019-03-23T19:47:41.845Z,101326.38
2019-03-23T19:50:15.875Z,101319.44
2019-03-23T19:52:50.079Z,101318.23
2019-03-23T19:55:24.207Z,101324.20
2019-03-23T19:57:57.516Z,101325.01
2019-03-23T20:00:31.950Z,101326.09
2019-03-23T20:03:05.949Z,101328.32
2019-03-23T20:05:39.841Z,101331.41
2019-03-23T20:08:12.751Z,101325.30
2019-03-23T20:10:46.423Z,101334.27
2019-03-23T20:13:20.157Z,101333.89
2019-03-23T20:15:54.286Z,101327.55
2019-03-23T20:18:28.722Z,101329.70
2019-03-23T20:21:02.745Z,101332.42
2019-03-23T20:23:36.479Z,101336.59
2019-03-23T20:26:10.475Z,101336.68
2019-03-23T20:28:44.306Z,101338.87
2019-03-23T20:31:18.444Z,101348.64
2019-03-23T20:33:53.081Z,101344.78
2019-03-23T20:36:27.165Z,101339.66
2019-03-23T20:39:01.515Z,101339.61
2019-03-23T20:41:37.137Z,101336.66
2019-03-23T20:44:11.276Z,101334.59
2019-03-23T20:46:45.056Z,101329.05
